createdAt,value
2024-03-16T00:02:39.749Z,10.33
2024-03-16T00:05:28.883Z,10.25
2024-03-16T00:08:16.898Z,10.24
2024-03-16T00:11:04.683Z,10.25
2024-03-16T00:13:52.564Z,10.29
2024-03-16T00:16:40.309Z,10.31
2024-03-16T00:19:28.104Z,10.32
2024-03-16T00:22:16.539Z,10.34
2024-03-16T00:25:06.193Z,10.34
2024-03-16T00:27:54.240Z,10.29
2024-03-16T00:30:43.082Z,10.25
2024-03-16T00:33:30.938Z,10.26
2024-03-16T00:36:18.924Z,10.28
2024-03-16T00:39:16.849Z,10.28
2024-03-16T00:42:05.217Z,10.28
2024-03-16T00:44:53.004Z,10.30
2024-03-16T00:47:41.603Z,10.34
2024-03-16T00:50:30.216Z,10.34
2024-03-16T00:53:19.199Z,10.30
2024-03-16T00:56:07.067Z,10.24
2024-03-16T00:58:55.066Z,10.22
2024-03-16T01:01:44.151Z,10.25
2024-03-16T01:04:35.469Z,10.26
2024-03-16T01:07:23.778Z,10.25
2024-03-16T01:10:13.378Z,10.22
2024-03-16T01:13:01.711Z,10.21
2024-03-16T01:15:51.139Z,10.18
2024-03-16T01:18:41.103Z,10.17
2024-03-16T01:21:29.186Z,10.17
2024-03-16T01:24:17.063Z,10.19
2024-03-16T01:27:04.726Z,10.19
2024-03-16T01:29:52.734Z,10.23
2024-03-16T01:32:40.438Z,10.25
2024-03-16T01:35:28.409Z,10.23
2024-03-16T01:38:19.731Z,10.23
2024-03-16T01:41:07.950Z,10.26
2024-03-16T01:44:10.764Z,10.26
2024-03-16T01:46:59.022Z,10.22
2024-03-16T01:49:47.082Z,10.21
2024-03-16T01:52:34.683Z,10.21
2024-03-16T01:55:22.732Z,10.22
2024-03-16T01:58:10.600Z,10.22
2024-03-16T02:00:58.840Z,10.21
2024-03-16T02:03:47.900Z,10.17
2024-03-16T02:06:36.103Z,10.18
2024-03-16T02:09:24.593Z,10.16
2024-03-16T02:12:14.155Z,10.11
2024-03-16T02:15:03.669Z,10.08
2024-03-16T02:17:51.942Z,10.08
2024-03-16T02:20:39.937Z,10.07
2024-03-16T02:23:27.957Z,10.09
2024-03-16T02:26:15.640Z,10.14
2024-03-16T02:29:04.000Z,10.16
2024-03-16T02:31:54.281Z,10.16
2024-03-16T02:34:43.098Z,10.13
2024-03-16T02:37:31.241Z,10.14
2024-03-16T02:40:18.978Z,10.12
2024-03-16T02:43:07.552Z,10.17
2024-03-16T02:45:59.001Z,10.18
2024-03-16T02:48:47.148Z,10.13
2024-03-16T02:51:35.343Z,10.11
2024-03-16T02:54:23.405Z,10.11
2024-03-16T02:57:11.221Z,10.10
2024-03-16T02:59:58.786Z,10.08
2024-03-16T03:02:46.586Z,10.08
2024-03-16T03:05:34.408Z,10.06
2024-03-16T03:08:22.608Z,10.05
2024-03-16T03:11:10.851Z,10.07
2024-03-16T03:13:58.584Z,10.04
2024-03-16T03:16:46.386Z,10.05
2024-03-16T03:19:34.159Z,9.95
2024-03-16T03:22:21.852Z,9.97
2024-03-16T03:25:11.670Z,9.98
2024-03-16T03:28:00.337Z,9.91
2024-03-16T03:30:50.306Z,9.84
2024-03-16T03:33:39.487Z,9.84
2024-03-16T03:36:27.930Z,9.79
2024-03-16T03:39:17.229Z,9.80
2024-03-16T03:42:05.640Z,9.78
2024-03-16T03:45:12.387Z,9.76
2024-03-16T03:48:19.751Z,9.75
2024-03-16T03:51:08.157Z,9.76
2024-03-16T03:53:58.919Z,9.68
2024-03-16T03:56:47.104Z,9.68
2024-03-16T03:59:35.376Z,9.69
2024-03-16T04:02:23.211Z,9.69
2024-03-16T04:05:11.068Z,9.68
2024-03-16T04:07:59.934Z,9.65
2024-03-16T04:10:48.230Z,9.63
2024-03-16T04:13:35.882Z,9.63
2024-03-16T04:16:23.773Z,9.62
2024-03-16T04:19:12.270Z,9.63
2024-03-16T04:22:00.380Z,9.63
2024-03-16T04:24:48.517Z,9.64
2024-03-16T04:27:37.360Z,9.64
2024-03-16T04:30:25.255Z,9.69
2024-03-16T04:33:13.794Z,9.72
2024-03-16T04:36:01.481Z,9.74
2024-03-16T04:38:49.675Z,9.76
2024-03-16T04:41:37.312Z,9.78
2024-03-16T04:44:25.045Z,9.80
2024-03-16T04:47:12.914Z,9.83
2024-03-16T04:50:01.561Z,9.79
2024-03-16T04:52:49.591Z,9.79
2024-03-16T04:55:37.360Z,9.82
2024-03-16T04:58:26.475Z,9.85
2024-03-16T05:01:14.970Z,9.80
2024-03-16T05:04:03.039Z,9.82
2024-03-16T05:06:50.949Z,9.77
2024-03-16T05:09:38.779Z,9.80
2024-03-16T05:12:26.258Z,9.80
2024-03-16T05:15:14.012Z,9.82
2024-03-16T05:18:01.752Z,9.84
2024-03-16T05:20:52.301Z,9.85
2024-03-16T05:23:41.035Z,9.88
2024-03-16T05:26:31.898Z,9.87
2024-03-16T05:29:20.201Z,9.89
2024-03-16T05:32:08.130Z,9.88
2024-03-16T05:34:56.572Z,9.86
2024-03-16T05:37:44.541Z,9.81
2024-03-16T05:40:32.540Z,9.82
2024-03-16T05:43:20.229Z,9.80
2024-03-16T05:46:07.735Z,9.80
2024-03-16T05:48:55.903Z,9.82
2024-03-16T05:51:44.827Z,9.81
2024-03-16T05:54:35.378Z,9.83
2024-03-16T05:57:23.692Z,9.81
2024-03-16T06:00:15.708Z,9.81
2024-03-16T06:03:04.052Z,9.86
2024-03-16T06:05:52.903Z,9.90
2024-03-16T06:08:40.634Z,9.94
2024-03-16T06:11:28.465Z,9.97
2024-03-16T06:14:16.918Z,10.03
2024-03-16T06:17:05.207Z,10.02
2024-03-16T06:19:54.993Z,10.02
2024-03-16T06:22:43.212Z,10.06
2024-03-16T06:25:37.143Z,10.09
2024-03-16T06:28:25.457Z,10.15
2024-03-16T06:31:13.243Z,10.17
2024-03-16T06:34:05.964Z,10.19
2024-03-16T06:36:54.486Z,10.23
2024-03-16T06:39:42.666Z,10.28
2024-03-16T06:42:30.802Z,10.29
2024-03-16T06:45:18.721Z,10.34
2024-03-16T06:48:07.379Z,10.35
2024-03-16T06:50:55.388Z,10.38
2024-03-16T06:53:43.602Z,10.43
2024-03-16T06:56:32.337Z,10.46
2024-03-16T06:59:20.545Z,10.50
2024-03-16T07:02:09.345Z,10.55
2024-03-16T07:04:57.395Z,10.60
2024-03-16T07:07:45.308Z,10.66
2024-03-16T07:10:33.127Z,10.69
2024-03-16T07:13:21.470Z,10.78
2024-03-16T07:16:15.117Z,10.87
2024-03-16T07:19:04.040Z,10.92
2024-03-16T07:21:52.405Z,10.97
2024-03-16T07:24:40.178Z,11.01
2024-03-16T07:27:27.720Z,11.07
2024-03-16T07:30:15.547Z,11.13
2024-03-16T07:33:04.810Z,11.17
2024-03-16T07:35:53.451Z,11.22
2024-03-16T07:38:41.479Z,11.28
2024-03-16T07:41:29.592Z,11.33
2024-03-16T07:44:17.348Z,11.36
2024-03-16T07:47:05.601Z,11.40
2024-03-16T07:49:53.719Z,11.43
2024-03-16T07:52:41.333Z,11.48
2024-03-16T07:55:31.210Z,11.56
2024-03-16T07:58:19.168Z,11.62
2024-03-16T08:01:07.301Z,11.66
2024-03-16T08:03:55.063Z,11.76
2024-03-16T08:06:43.134Z,11.85
2024-03-16T08:09:31.858Z,11.93
2024-03-16T08:12:19.667Z,12.04
2024-03-16T08:15:08.273Z,12.16
2024-03-16T08:17:58.767Z,12.31
2024-03-16T08:20:46.872Z,12.50
2024-03-16T08:23:34.499Z,12.70
2024-03-16T08:26:22.384Z,12.87
2024-03-16T08:29:10.173Z,12.95
2024-03-16T08:31:59.579Z,13.12
2024-03-16T08:34:47.790Z,13.26
2024-03-16T08:37:35.708Z,13.25
2024-03-16T08:40:23.420Z,13.37
2024-03-16T08:43:12.613Z,13.59
2024-03-16T08:46:07.310Z,13.57
2024-03-16T08:48:55.042Z,13.64
2024-03-16T08:51:44.157Z,13.74
2024-03-16T08:54:39.007Z,14.08
2024-03-16T08:57:28.121Z,14.33
2024-03-16T09:00:16.037Z,14.38
2024-03-16T09:03:06.061Z,14.27
2024-03-16T09:05:54.688Z,14.44
2024-03-16T09:08:42.908Z,14.40
2024-03-16T09:11:30.915Z,14.30
2024-03-16T09:14:18.810Z,14.17
2024-03-16T09:17:06.752Z,13.99
2024-03-16T09:19:55.480Z,13.91
2024-03-16T09:22:44.775Z,14.27
2024-03-16T09:25:33.026Z,14.70
2024-03-16T09:28:23.167Z,14.92
2024-03-16T09:31:11.665Z,15.07
2024-03-16T09:34:00.776Z,15.38
2024-03-16T09:36:49.025Z,15.69
2024-03-16T09:39:36.767Z,15.92
2024-03-16T09:42:24.362Z,16.14
2024-03-16T09:45:19.596Z,16.44
2024-03-16T09:48:10.776Z,16.62
2024-03-16T09:50:59.362Z,16.52
2024-03-16T09:53:47.227Z,16.45
2024-03-16T09:56:38.083Z,16.69
2024-03-16T09:59:30.951Z,16.75
2024-03-16T10:02:25.689Z,16.56
2024-03-16T10:05:14.493Z,16.35
2024-03-16T10:08:02.644Z,16.11
2024-03-16T10:10:51.925Z,15.94
2024-03-16T10:13:54.286Z,15.69
2024-03-16T10:16:42.534Z,15.55
2024-03-16T10:19:33.395Z,15.35
2024-03-16T10:22:21.513Z,15.24
2024-03-16T10:25:11.041Z,15.37
2024-03-16T10:27:58.633Z,15.53
2024-03-16T10:30:47.134Z,15.77
2024-03-16T10:33:39.600Z,15.82
2024-03-16T10:36:30.270Z,15.76
2024-03-16T10:39:19.026Z,16.00
2024-03-16T10:42:16.719Z,16.45
2024-03-16T10:45:05.211Z,16.66
2024-03-16T10:47:57.194Z,16.72
2024-03-16T10:50:48.629Z,16.48
2024-03-16T10:53:40.700Z,16.41
2024-03-16T10:56:33.621Z,16.51
2024-03-16T10:59:34.237Z,16.86
2024-03-16T11:02:24.510Z,16.73
2024-03-16T11:05:40.648Z,16.72
2024-03-16T11:08:47.843Z,16.54
2024-03-16T11:11:36.604Z,16.50
2024-03-16T11:14:26.287Z,16.22
2024-03-16T11:17:27.695Z,16.22
2024-03-16T11:20:39.241Z,16.21
2024-03-16T11:23:28.645Z,16.17
2024-03-16T11:26:28.575Z,16.09
2024-03-16T11:29:19.983Z,16.09
2024-03-16T11:32:11.579Z,16.45
2024-03-16T11:34:59.318Z,16.60
2024-03-16T11:37:50.588Z,16.65
2024-03-16T11:40:43.992Z,16.66
2024-03-16T11:43:31.937Z,16.68
2024-03-16T11:46:20.643Z,16.79
2024-03-16T11:49:16.036Z,16.79
2024-03-16T11:52:05.919Z,16.68
2024-03-16T11:54:53.735Z,16.82
2024-03-16T11:57:41.902Z,16.95
2024-03-16T12:00:30.670Z,17.04
2024-03-16T12:03:21.552Z,17.27
2024-03-16T12:06:11.531Z,17.66
2024-03-16T12:08:59.165Z,17.82
2024-03-16T12:11:49.876Z,17.84
2024-03-16T12:14:43.232Z,17.57
2024-03-16T12:17:32.199Z,17.32
2024-03-16T12:20:21.305Z,17.10
2024-03-16T12:23:09.824Z,16.82
2024-03-16T12:25:59.836Z,16.61
2024-03-16T12:28:49.331Z,16.37
2024-03-16T12:31:39.372Z,16.19
2024-03-16T12:34:29.181Z,15.95
2024-03-16T12:37:17.605Z,15.68
2024-03-16T12:40:07.296Z,15.21
2024-03-16T12:42:55.426Z,14.80
2024-03-16T12:45:43.217Z,14.61
2024-03-16T12:48:32.027Z,14.29
2024-03-16T12:51:20.872Z,14.06
2024-03-16T12:54:10.976Z,13.93
2024-03-16T12:56:59.307Z,13.72
2024-03-16T12:59:47.668Z,13.61
2024-03-16T13:02:35.821Z,13.32
2024-03-16T13:05:23.897Z,13.20
2024-03-16T13:08:11.904Z,13.14
2024-03-16T13:11:00.242Z,12.88
2024-03-16T13:13:48.762Z,12.88
2024-03-16T13:16:38.216Z,12.86
2024-03-16T13:19:27.799Z,12.97
2024-03-16T13:22:15.652Z,13.10
2024-03-16T13:25:04.980Z,13.17
2024-03-16T13:27:52.375Z,13.26
2024-03-16T13:30:40.466Z,13.13
2024-03-16T13:33:28.329Z,13.10
2024-03-16T13:36:16.957Z,13.06
2024-03-16T13:39:08.973Z,13.07
2024-03-16T13:41:56.817Z,13.14
2024-03-16T13:44:45.214Z,13.11
2024-03-16T13:47:33.405Z,13.15
2024-03-16T13:50:21.352Z,13.05
2024-03-16T13:53:09.494Z,13.02
2024-03-16T13:55:58.971Z,13.03
2024-03-16T13:58:47.221Z,12.97
2024-03-16T14:01:35.783Z,12.98
2024-03-16T14:04:23.817Z,12.97
2024-03-16T14:07:11.640Z,13.09
2024-03-16T14:10:02.193Z,13.21
2024-03-16T14:12:53.382Z,13.14
2024-03-16T14:15:41.332Z,13.18
2024-03-16T14:18:29.683Z,13.17
2024-03-16T14:21:17.330Z,13.25
2024-03-16T14:24:05.624Z,13.38
2024-03-16T14:26:53.394Z,13.52
2024-03-16T14:29:41.401Z,13.45
2024-03-16T14:32:29.884Z,13.42
2024-03-16T14:35:17.670Z,13.42
2024-03-16T14:38:06.693Z,13.54
2024-03-16T14:40:55.799Z,13.48
2024-03-16T14:43:44.794Z,13.52
2024-03-16T14:46:32.731Z,13.47
2024-03-16T14:49:23.020Z,13.49
2024-03-16T14:52:11.503Z,13.59
2024-03-16T14:55:00.328Z,13.63
2024-03-16T14:57:48.378Z,13.63
2024-03-16T15:00:37.147Z,13.71
2024-03-16T15:03:24.870Z,13.78
2024-03-16T15:06:13.213Z,13.85
2024-03-16T15:09:08.050Z,13.93
2024-03-16T15:11:56.058Z,13.92
2024-03-16T15:14:46.687Z,13.91
2024-03-16T15:17:36.553Z,13.98
2024-03-16T15:20:26.227Z,14.00
2024-03-16T15:23:13.756Z,14.07
2024-03-16T15:26:16.972Z,14.08
2024-03-16T15:29:04.966Z,14.11
2024-03-16T15:31:52.942Z,14.09
2024-03-16T15:34:40.596Z,14.09
2024-03-16T15:37:28.883Z,14.04
2024-03-16T15:40:16.994Z,13.98
2024-03-16T15:43:05.018Z,13.95
2024-03-16T15:45:52.632Z,13.92
2024-03-16T15:48:40.190Z,13.92
2024-03-16T15:51:29.975Z,13.85
2024-03-16T15:54:17.783Z,13.81
2024-03-16T15:57:07.303Z,13.78
2024-03-16T15:59:55.230Z,13.75
2024-03-16T16:02:43.186Z,13.75
2024-03-16T16:05:31.104Z,13.78
2024-03-16T16:08:19.253Z,13.70
2024-03-16T16:11:08.039Z,13.67
2024-03-16T16:13:56.141Z,13.61
2024-03-16T16:16:44.269Z,13.51
2024-03-16T16:19:32.421Z,13.45
2024-03-16T16:22:20.506Z,13.39
2024-03-16T16:25:08.736Z,13.37
2024-03-16T16:27:56.493Z,13.38
2024-03-16T16:30:44.722Z,13.35
2024-03-16T16:33:32.492Z,13.32
2024-03-16T16:36:20.671Z,13.30
2024-03-16T16:39:08.815Z,13.26
2024-03-16T16:41:56.750Z,13.25
2024-03-16T16:44:44.688Z,13.25
2024-03-16T16:47:32.525Z,13.25
2024-03-16T16:50:20.273Z,13.25
2024-03-16T16:53:09.839Z,13.21
2024-03-16T16:55:58.396Z,13.21
2024-03-16T16:58:46.025Z,13.17
2024-03-16T17:01:33.866Z,13.14
2024-03-16T17:04:21.601Z,13.09
2024-03-16T17:07:14.055Z,13.07
2024-03-16T17:10:13.458Z,12.99
2024-03-16T17:13:03.141Z,12.96
2024-03-16T17:15:52.087Z,12.90
2024-03-16T17:18:39.657Z,12.80
2024-03-16T17:21:27.380Z,12.71
2024-03-16T17:24:15.197Z,12.61
2024-03-16T17:27:07.327Z,12.54
2024-03-16T17:29:55.689Z,12.50
2024-03-16T17:32:44.038Z,12.47
2024-03-16T17:35:34.988Z,12.42
2024-03-16T17:38:25.970Z,12.38
2024-03-16T17:41:14.162Z,12.36
2024-03-16T17:44:02.058Z,12.37
2024-03-16T17:46:49.804Z,12.34
2024-03-16T17:49:39.970Z,12.30
2024-03-16T17:52:27.632Z,12.30
2024-03-16T17:55:16.803Z,12.26
2024-03-16T17:58:06.349Z,12.20
2024-03-16T18:00:54.191Z,12.12
2024-03-16T18:03:42.058Z,12.03
2024-03-16T18:06:29.761Z,12.00
2024-03-16T18:09:21.716Z,11.95
2024-03-16T18:12:12.185Z,11.90
2024-03-16T18:14:59.808Z,11.86
2024-03-16T18:17:54.664Z,11.84
2024-03-16T18:20:46.767Z,11.88
2024-03-16T18:23:35.516Z,11.89
2024-03-16T18:26:23.456Z,11.85
2024-03-16T18:29:11.103Z,11.88
2024-03-16T18:31:58.933Z,11.85
2024-03-16T18:34:47.067Z,11.85
2024-03-16T18:37:35.136Z,11.80
2024-03-16T18:40:22.949Z,11.75
2024-03-16T18:43:15.940Z,11.69
2024-03-16T18:46:04.665Z,11.71
2024-03-16T18:48:54.686Z,11.73
2024-03-16T18:51:42.722Z,11.74
2024-03-16T18:54:30.529Z,11.69
2024-03-16T18:57:20.006Z,11.66
2024-03-16T19:00:18.391Z,11.57
2024-03-16T19:03:14.397Z,11.49
2024-03-16T19:06:05.763Z,11.42
2024-03-16T19:08:53.704Z,11.37
2024-03-16T19:11:42.493Z,11.36
2024-03-16T19:14:30.681Z,11.34
2024-03-16T19:17:18.785Z,11.34
2024-03-16T19:20:08.711Z,11.41
2024-03-16T19:22:58.504Z,11.41
2024-03-16T19:25:46.742Z,11.43
2024-03-16T19:28:34.684Z,11.45
2024-03-16T19:31:25.921Z,11.46
2024-03-16T19:34:13.934Z,11.42
2024-03-16T19:37:02.080Z,11.38
2024-03-16T19:39:50.181Z,11.36
2024-03-16T19:42:38.779Z,11.29
2024-03-16T19:45:27.244Z,11.29
2024-03-16T19:48:15.711Z,11.20
2024-03-16T19:51:04.032Z,11.19
2024-03-16T19:53:51.931Z,11.18
2024-03-16T19:56:39.871Z,11.19
2024-03-16T19:59:27.964Z,11.18
2024-03-16T20:02:17.532Z,11.18
2024-03-16T20:05:06.084Z,11.13
2024-03-16T20:07:55.661Z,11.05
2024-03-16T20:10:43.769Z,10.97
2024-03-16T20:13:31.950Z,10.93
2024-03-16T20:16:19.836Z,10.90
2024-03-16T20:19:08.138Z,10.93
2024-03-16T20:21:57.594Z,10.89
2024-03-16T20:24:47.032Z,10.85
2024-03-16T20:27:35.992Z,10.81
2024-03-16T20:30:23.706Z,10.78
2024-03-16T20:33:14.034Z,10.78
2024-03-16T20:36:02.049Z,10.71
2024-03-16T20:38:50.063Z,10.69
2024-03-16T20:41:39.539Z,10.70
2024-03-16T20:44:27.525Z,10.70
2024-03-16T20:47:15.519Z,10.73
2024-03-16T20:50:07.488Z,10.71
2024-03-16T20:52:55.387Z,10.70
2024-03-16T20:55:44.043Z,10.70
2024-03-16T20:58:32.808Z,10.67
2024-03-16T21:01:20.845Z,10.60
2024-03-16T21:04:10.003Z,10.60
2024-03-16T21:06:57.985Z,10.59
2024-03-16T21:09:45.910Z,10.60
2024-03-16T21:12:37.441Z,10.58
2024-03-16T21:15:26.583Z,10.57
2024-03-16T21:18:15.870Z,10.52
2024-03-16T21:21:14.655Z,10.51
2024-03-16T21:25:20.735Z,10.50
2024-03-16T21:28:16.660Z,10.38
2024-03-16T21:31:06.974Z,10.32
2024-03-16T21:33:55.442Z,10.26
2024-03-16T21:36:43.882Z,10.24
2024-03-16T21:39:33.085Z,10.20
2024-03-16T21:42:20.849Z,10.21
2024-03-16T21:45:10.063Z,10.24
2024-03-16T21:47:58.162Z,10.18
2024-03-16T21:50:47.952Z,10.12
2024-03-16T21:53:37.377Z,10.09
2024-03-16T21:56:25.587Z,10.05
2024-03-16T21:59:13.809Z,10.00
2024-03-16T22:02:02.478Z,9.93
2024-03-16T22:04:53.295Z,9.85
2024-03-16T22:07:43.789Z,9.81
2024-03-16T22:10:32.837Z,9.78
2024-03-16T22:13:20.828Z,9.68
2024-03-16T22:16:09.239Z,9.68
2024-03-16T22:18:57.290Z,9.63
2024-03-16T22:21:45.310Z,9.65
2024-03-16T22:24:34.492Z,9.66
2024-03-16T22:27:25.088Z,9.61
2024-03-16T22:30:16.208Z,9.55
2024-03-16T22:33:06.692Z,9.54
2024-03-16T22:35:54.332Z,9.52
2024-03-16T22:38:42.313Z,9.49
2024-03-16T22:41:30.614Z,9.51
2024-03-16T22:44:19.972Z,9.27
2024-03-16T22:47:07.726Z,8.73
2024-03-16T22:49:55.821Z,8.39
2024-03-16T22:52:43.809Z,8.25
2024-03-16T22:55:32.016Z,8.12
2024-03-16T22:58:19.887Z,8.03
2024-03-16T23:01:07.973Z,8.06
2024-03-16T23:03:56.803Z,7.97
2024-03-16T23:06:47.801Z,7.88
2024-03-16T23:09:35.763Z,7.79
2024-03-16T23:12:24.188Z,7.66
2024-03-16T23:15:12.336Z,7.68
2024-03-16T23:18:00.070Z,7.68
2024-03-16T23:20:48.315Z,7.65
2024-03-16T23:23:37.426Z,7.56
2024-03-16T23:26:32.115Z,7.57
2024-03-16T23:29:25.004Z,7.56
2024-03-16T23:32:13.488Z,7.53
2024-03-16T23:35:01.735Z,7.46
2024-03-16T23:37:50.216Z,7.47
2024-03-16T23:40:39.296Z,7.52
2024-03-16T23:43:27.326Z,7.47
2024-03-16T23:46:15.239Z,7.44
2024-03-16T23:49:04.498Z,7.39
2024-03-16T23:51:52.490Z,7.30
2024-03-16T23:54:40.993Z,7.27
2024-03-16T23:57:28.837Z,7.29
